createdAt,value
2023-11-09T00:00:10.785Z,8.20
2023-11-09T00:02:58.567Z,7.10
2023-11-09T00:05:26.558Z,8.50
2023-11-09T00:07:54.617Z,7.50
2023-11-09T00:10:22.977Z,7.60
2023-11-09T00:12:52.601Z,7.60
2023-11-09T00:15:21.815Z,7.40
2023-11-09T00:17:49.976Z,8.00
2023-11-09T00:20:18.089Z,7.00
2023-11-09T00:22:47.760Z,6.50
2023-11-09T00:25:15.603Z,7.20
2023-11-09T00:27:43.432Z,7.00
2023-11-09T00:30:11.200Z,6.20
2023-11-09T00:32:38.882Z,7.60
2023-11-09T00:35:06.915Z,7.00
2023-11-09T00:37:34.794Z,7.30
2023-11-09T00:40:02.641Z,6.80
2023-11-09T00:42:30.631Z,6.90
2023-11-09T00:44:58.784Z,6.30
2023-11-09T00:47:26.598Z,7.50
2023-11-09T00:49:55.055Z,7.00
2023-11-09T00:52:23.273Z,6.90
2023-11-09T00:54:52.706Z,6.90
2023-11-09T00:57:25.718Z,6.60
2023-11-09T00:59:53.590Z,7.30
2023-11-09T01:02:21.960Z,6.90
2023-11-09T01:04:49.778Z,6.80
2023-11-09T01:07:18.185Z,6.50
2023-11-09T01:09:47.198Z,5.50
2023-11-09T01:12:15.203Z,6.60
2023-11-09T01:14:45.189Z,6.00
2023-11-09T01:17:12.950Z,5.90
2023-11-09T01:19:40.779Z,6.10
2023-11-09T01:22:08.748Z,5.70
2023-11-09T01:24:36.549Z,5.90
2023-11-09T01:27:04.314Z,6.30
2023-11-09T01:29:32.089Z,7.00
2023-11-09T01:32:00.085Z,5.60
2023-11-09T01:34:27.995Z,6.00
2023-11-09T01:36:55.917Z,6.70
2023-11-09T01:39:24.497Z,6.30
2023-11-09T01:41:52.675Z,6.80
2023-11-09T01:44:20.411Z,6.50
2023-11-09T01:46:54.702Z,6.30
2023-11-09T01:49:22.801Z,7.40
2023-11-09T01:51:55.749Z,7.20
2023-11-09T01:54:24.060Z,6.70
2023-11-09T01:56:52.231Z,6.30
2023-11-09T01:59:19.998Z,6.70
2023-11-09T02:01:47.867Z,7.50
2023-11-09T02:04:15.667Z,8.10
2023-11-09T02:06:43.769Z,9.50
2023-11-09T02:09:11.572Z,12.10
2023-11-09T02:11:39.642Z,9.40
2023-11-09T02:14:07.402Z,7.40
2023-11-09T02:16:35.665Z,12.00
2023-11-09T02:19:04.507Z,7.40
2023-11-09T02:21:32.786Z,8.80
2023-11-09T02:24:00.520Z,10.10
2023-11-09T02:26:28.374Z,8.70
2023-11-09T02:28:56.341Z,8.40
2023-11-09T02:31:24.139Z,8.70
2023-11-09T02:33:52.023Z,7.60
2023-11-09T02:36:20.589Z,7.50
2023-11-09T02:38:48.528Z,7.70
2023-11-09T02:41:16.294Z,6.30
2023-11-09T02:43:44.585Z,5.90
2023-11-09T02:46:13.069Z,7.20
2023-11-09T02:48:42.238Z,8.00
2023-11-09T02:51:10.233Z,7.10
2023-11-09T02:53:38.796Z,8.00
2023-11-09T02:56:09.529Z,8.70
2023-11-09T02:58:37.300Z,8.90
2023-11-09T03:01:05.109Z,9.10
2023-11-09T03:03:33.539Z,8.40
2023-11-09T03:06:01.436Z,8.70
2023-11-09T03:08:29.782Z,7.80
2023-11-09T03:10:57.559Z,7.70
2023-11-09T03:13:25.404Z,7.70
2023-11-09T03:15:53.290Z,7.20
2023-11-09T03:18:21.575Z,6.90
2023-11-09T03:20:49.427Z,7.40
2023-11-09T03:23:17.191Z,6.40
2023-11-09T03:25:44.957Z,6.90
2023-11-09T03:28:12.731Z,7.30
2023-11-09T03:30:40.690Z,6.90
2023-11-09T03:33:10.841Z,8.00
2023-11-09T03:35:38.579Z,6.90
2023-11-09T03:38:06.347Z,7.90
2023-11-09T03:40:34.125Z,7.50
2023-11-09T03:43:01.991Z,7.40
2023-11-09T03:45:29.934Z,7.90
2023-11-09T03:47:57.779Z,6.80
2023-11-09T03:50:25.670Z,6.70
2023-11-09T03:52:54.395Z,7.80
2023-11-09T03:55:22.356Z,7.80
2023-11-09T03:57:50.090Z,8.20
2023-11-09T04:00:20.067Z,7.90
2023-11-09T04:02:48.015Z,7.60
2023-11-09T04:05:15.850Z,7.30
2023-11-09T04:07:44.736Z,7.60
2023-11-09T04:10:14.199Z,7.30
2023-11-09T04:12:41.996Z,7.30
2023-11-09T04:15:10.821Z,6.30
2023-11-09T04:17:38.591Z,7.80
2023-11-09T04:20:08.175Z,6.10
2023-11-09T04:22:36.817Z,7.50
2023-11-09T04:25:05.161Z,6.30
2023-11-09T04:27:36.095Z,6.40
2023-11-09T04:30:04.740Z,7.60
2023-11-09T04:32:33.652Z,7.60
2023-11-09T04:35:01.474Z,8.10
2023-11-09T04:37:30.121Z,8.90
2023-11-09T04:40:00.005Z,10.20
2023-11-09T04:42:31.028Z,9.00
2023-11-09T04:44:58.844Z,9.30
2023-11-09T04:47:27.111Z,8.50
2023-11-09T04:50:03.416Z,8.80
2023-11-09T04:52:32.364Z,9.10
2023-11-09T04:55:12.354Z,7.90
2023-11-09T04:57:59.356Z,7.50
2023-11-09T05:00:47.257Z,6.70
2023-11-09T05:03:34.762Z,6.20
2023-11-09T05:06:32.121Z,6.10
2023-11-09T05:08:59.995Z,7.10
2023-11-09T05:11:29.598Z,6.60
2023-11-09T05:13:57.365Z,6.30
2023-11-09T05:16:25.544Z,5.60
2023-11-09T05:18:53.508Z,6.10
2023-11-09T05:21:22.395Z,6.30
2023-11-09T05:23:50.167Z,6.10
2023-11-09T05:26:18.127Z,6.00
2023-11-09T05:28:46.450Z,6.10
2023-11-09T05:31:14.284Z,6.50
2023-11-09T05:33:42.074Z,6.70
2023-11-09T05:36:09.924Z,6.40
2023-11-09T05:38:37.769Z,6.00
2023-11-09T05:41:05.740Z,6.20
2023-11-09T05:43:33.429Z,5.90
2023-11-09T05:46:01.202Z,6.00
2023-11-09T05:48:28.985Z,6.00
2023-11-09T05:50:58.753Z,6.30
2023-11-09T05:53:27.938Z,6.00
2023-11-09T05:55:55.708Z,53.20
2023-11-09T05:58:23.948Z,65.00
2023-11-09T06:00:53.584Z,53.40
2023-11-09T06:03:22.420Z,46.40
2023-11-09T06:05:51.994Z,26.90
2023-11-09T06:08:20.565Z,21.70
2023-11-09T06:10:50.823Z,22.40
2023-11-09T06:13:20.280Z,11.50
2023-11-09T06:15:48.677Z,25.50
2023-11-09T06:18:17.789Z,32.50
2023-11-09T06:20:48.429Z,15.90
2023-11-09T06:23:16.265Z,17.30
2023-11-09T06:25:44.608Z,19.20
2023-11-09T06:28:12.796Z,9.20
2023-11-09T06:30:40.684Z,12.00
2023-11-09T06:33:10.832Z,7.40
2023-11-09T06:35:40.412Z,6.50
2023-11-09T06:38:09.913Z,6.20
2023-11-09T06:40:37.638Z,6.60
2023-11-09T06:43:05.517Z,7.50
2023-11-09T06:45:33.312Z,8.60
2023-11-09T06:48:01.115Z,7.20
2023-11-09T06:50:28.992Z,6.20
2023-11-09T06:52:57.220Z,7.00
2023-11-09T06:55:26.094Z,6.50
2023-11-09T06:57:58.416Z,7.20
2023-11-09T07:00:26.555Z,7.50
2023-11-09T07:02:58.749Z,12.40
2023-11-09T07:05:27.203Z,18.00
2023-11-09T07:07:57.799Z,21.40
2023-11-09T07:10:25.653Z,13.80
2023-11-09T07:12:53.564Z,7.80
2023-11-09T07:15:21.785Z,7.30
2023-11-09T07:17:49.538Z,5.90
2023-11-09T07:20:17.368Z,5.80
2023-11-09T07:22:45.136Z,6.00
2023-11-09T07:25:14.197Z,5.70
2023-11-09T07:27:42.309Z,5.40
2023-11-09T07:30:10.072Z,5.80
2023-11-09T07:32:37.827Z,5.40
2023-11-09T07:35:06.821Z,5.10
2023-11-09T07:37:34.619Z,5.10
2023-11-09T07:40:04.719Z,4.90
2023-11-09T07:42:32.703Z,5.50
2023-11-09T07:45:00.444Z,6.00
2023-11-09T07:47:29.045Z,6.50
2023-11-09T07:49:58.337Z,8.10
2023-11-09T07:52:27.275Z,6.70
2023-11-09T07:54:56.015Z,5.20
2023-11-09T07:57:24.072Z,6.10
2023-11-09T07:59:51.851Z,6.50
2023-11-09T08:02:21.137Z,5.90
2023-11-09T08:04:49.625Z,5.40
2023-11-09T08:07:17.399Z,4.50
2023-11-09T08:09:45.146Z,4.40
2023-11-09T08:12:13.050Z,5.80
2023-11-09T08:14:40.983Z,5.70
2023-11-09T08:17:16.154Z,5.20
2023-11-09T08:19:50.927Z,5.00
2023-11-09T08:22:18.965Z,6.80
2023-11-09T08:24:47.194Z,3.50
2023-11-09T08:27:14.958Z,3.80
2023-11-09T08:29:42.726Z,3.10
2023-11-09T08:32:11.764Z,2.30
2023-11-09T08:34:41.752Z,4.80
2023-11-09T08:37:11.900Z,3.40
2023-11-09T08:39:39.925Z,5.10
2023-11-09T08:42:07.791Z,3.10
2023-11-09T08:44:37.398Z,4.30
2023-11-09T08:47:05.104Z,4.30
2023-11-09T08:49:33.004Z,3.60
2023-11-09T08:52:05.776Z,3.00
2023-11-09T08:54:33.677Z,2.80
2023-11-09T08:57:01.545Z,2.90
2023-11-09T08:59:32.229Z,2.40
2023-11-09T09:02:03.345Z,2.20
2023-11-09T09:04:31.415Z,2.10
2023-11-09T09:06:59.187Z,2.70
2023-11-09T09:09:34.527Z,2.50
2023-11-09T09:12:11.102Z,2.00
2023-11-09T09:14:38.933Z,2.20
2023-11-09T09:17:06.875Z,2.30
2023-11-09T09:19:35.173Z,3.00
2023-11-09T09:22:05.298Z,2.00
2023-11-09T09:24:33.062Z,2.40
2023-11-09T09:27:00.826Z,3.80
2023-11-09T09:29:31.054Z,2.40
2023-11-09T09:31:59.877Z,5.60
2023-11-09T09:34:27.823Z,2.80
2023-11-09T09:36:59.960Z,2.00
2023-11-09T09:39:29.285Z,3.70
2023-11-09T09:42:00.383Z,4.90
2023-11-09T09:44:28.181Z,5.40
2023-11-09T09:46:56.968Z,3.10
2023-11-09T09:49:27.300Z,2.90
2023-11-09T09:51:56.085Z,3.60
2023-11-09T09:54:25.075Z,3.70
2023-11-09T09:56:55.189Z,3.30
2023-11-09T09:59:23.879Z,6.70
2023-11-09T10:01:51.840Z,4.00
2023-11-09T10:04:20.180Z,7.50
2023-11-09T10:06:48.203Z,3.20
2023-11-09T10:09:16.743Z,2.90
2023-11-09T10:11:44.849Z,6.50
2023-11-09T10:14:13.249Z,3.30
2023-11-09T10:16:42.664Z,4.60
2023-11-09T10:19:11.053Z,3.70
2023-11-09T10:21:39.493Z,3.90
2023-11-09T10:24:07.668Z,6.00
2023-11-09T10:26:35.977Z,4.00
2023-11-09T10:29:05.200Z,5.60
2023-11-09T10:31:33.133Z,2.80
2023-11-09T10:34:02.160Z,2.90
2023-11-09T10:36:30.171Z,2.30
2023-11-09T10:38:57.939Z,2.40
2023-11-09T10:41:53.791Z,2.90
2023-11-09T10:44:19.479Z,2.00
2023-11-09T10:46:47.205Z,2.00
2023-11-09T10:49:15.177Z,2.40
2023-11-09T10:51:45.734Z,4.80
2023-11-09T10:54:13.504Z,3.20
2023-11-09T10:56:41.206Z,6.00
2023-11-09T10:59:10.104Z,3.60
2023-11-09T11:01:38.133Z,3.40
2023-11-09T11:04:09.916Z,2.40
2023-11-09T11:06:38.184Z,2.60
2023-11-09T11:09:09.822Z,2.40
2023-11-09T11:11:38.095Z,1.90
2023-11-09T11:14:06.985Z,2.60
2023-11-09T11:16:35.121Z,3.20
2023-11-09T11:19:08.032Z,4.00
2023-11-09T11:21:37.590Z,2.90
2023-11-09T11:24:06.233Z,5.10
2023-11-09T11:26:47.868Z,16.70
2023-11-09T11:29:22.559Z,5.10
2023-11-09T11:31:50.522Z,2.90
2023-11-09T11:34:18.319Z,3.10
2023-11-09T11:36:49.219Z,7.90
2023-11-09T11:39:22.460Z,4.60
2023-11-09T11:41:51.668Z,2.50
2023-11-09T11:44:24.407Z,2.30
2023-11-09T11:46:59.532Z,2.60
2023-11-09T11:49:27.301Z,2.50
2023-11-09T11:51:55.156Z,2.40
2023-11-09T11:54:23.844Z,2.30
2023-11-09T11:56:53.142Z,2.70
2023-11-09T11:59:24.038Z,3.30
2023-11-09T12:01:52.536Z,3.70
2023-11-09T12:04:20.428Z,3.60
2023-11-09T12:06:48.387Z,2.60
2023-11-09T12:09:16.983Z,4.20
2023-11-09T12:11:45.493Z,4.50
2023-11-09T12:14:13.679Z,7.30
2023-11-09T12:16:41.749Z,4.70
2023-11-09T12:19:13.873Z,3.70
2023-11-09T12:21:42.194Z,3.80
2023-11-09T12:24:14.943Z,2.90
2023-11-09T12:26:44.075Z,3.40
2023-11-09T12:29:12.264Z,2.40
2023-11-09T12:31:40.094Z,2.70
2023-11-09T12:34:09.227Z,2.80
2023-11-09T12:36:39.214Z,2.20
2023-11-09T12:39:25.995Z,2.50
2023-11-09T12:41:54.072Z,4.80
2023-11-09T12:44:23.061Z,4.40
2023-11-09T12:46:50.843Z,3.60
2023-11-09T12:49:18.645Z,2.80
2023-11-09T12:51:48.501Z,2.60
2023-11-09T12:54:16.272Z,2.50
2023-11-09T12:56:46.387Z,2.90
2023-11-09T12:59:16.199Z,2.90
2023-11-09T13:01:44.901Z,2.60
2023-11-09T13:04:23.435Z,2.90
2023-11-09T13:06:51.471Z,3.10
2023-11-09T13:09:39.690Z,2.90
2023-11-09T13:12:26.685Z,2.90
2023-11-09T13:15:12.727Z,2.90
2023-11-09T13:17:54.426Z,3.30
2023-11-09T13:23:06.744Z,3.10
2023-11-09T13:25:36.205Z,6.50
2023-11-09T13:28:05.444Z,3.70
2023-11-09T13:30:35.096Z,5.30
2023-11-09T13:33:15.671Z,8.70
2023-11-09T13:35:49.005Z,18.50
2023-11-09T13:38:31.110Z,8.70
2023-11-09T13:41:13.751Z,6.50
2023-11-09T13:43:50.455Z,5.50
2023-11-09T13:46:24.046Z,4.90
2023-11-09T13:48:52.511Z,4.60
2023-11-09T13:51:28.565Z,17.70
2023-11-09T13:54:19.436Z,7.80
2023-11-09T13:57:02.358Z,5.60
2023-11-09T13:59:33.196Z,4.40
2023-11-09T14:02:00.960Z,4.80
2023-11-09T14:04:32.497Z,3.70
2023-11-09T14:07:03.271Z,8.90
2023-11-09T14:09:38.280Z,11.80
2023-11-09T14:12:13.620Z,5.50
2023-11-09T14:14:47.740Z,5.60
2023-11-09T14:17:19.316Z,12.10
2023-11-09T14:19:55.561Z,20.40
2023-11-09T14:22:25.478Z,7.50
2023-11-09T14:24:55.325Z,17.00
2023-11-09T14:27:29.705Z,32.10
2023-11-09T14:29:58.999Z,13.20
2023-11-09T14:32:27.874Z,15.80
2023-11-09T14:34:56.114Z,18.50
2023-11-09T14:37:24.232Z,95.80
2023-11-09T14:40:10.946Z,21.70
2023-11-09T14:42:39.113Z,20.70
2023-11-09T14:45:07.203Z,21.60
2023-11-09T14:47:43.744Z,26.30
2023-11-09T14:50:20.829Z,11.00
2023-11-09T14:52:58.256Z,10.00
2023-11-09T14:55:29.076Z,16.40
2023-11-09T14:57:59.194Z,11.70
2023-11-09T15:00:28.391Z,7.90
2023-11-09T15:02:57.720Z,11.90
2023-11-09T15:05:29.458Z,14.60
2023-11-09T15:07:59.275Z,9.20
2023-11-09T15:10:27.373Z,11.50
2023-11-09T15:12:55.341Z,7.10
2023-11-09T15:15:23.785Z,21.20
2023-11-09T15:17:51.866Z,10.40
2023-11-09T15:20:28.529Z,11.30
2023-11-09T15:23:01.064Z,10.60
2023-11-09T15:25:32.509Z,26.60
2023-11-09T15:28:02.301Z,52.70
2023-11-09T15:30:31.408Z,18.30
2023-11-09T15:33:01.671Z,13.20
2023-11-09T15:35:29.393Z,16.30
2023-11-09T15:38:00.834Z,64.20
2023-11-09T15:41:09.912Z,19.30
2023-11-09T15:43:19.849Z,20.50
2023-11-09T15:45:53.103Z,16.90
2023-11-09T15:50:51.109Z,20.00
2023-11-09T15:53:18.916Z,24.80
2023-11-09T15:55:47.282Z,25.60
2023-11-09T15:58:16.290Z,22.50
2023-11-09T16:00:47.365Z,34.30
2023-11-09T16:03:15.378Z,33.70
2023-11-09T16:05:43.980Z,38.90
2023-11-09T16:08:12.070Z,37.20
2023-11-09T16:10:41.853Z,30.50
2023-11-09T16:13:09.634Z,40.80
2023-11-09T16:15:37.396Z,33.30
2023-11-09T16:18:06.024Z,18.10
2023-11-09T16:20:36.291Z,19.20
2023-11-09T16:23:07.643Z,19.20
2023-11-09T16:25:35.810Z,17.70
2023-11-09T16:28:07.933Z,16.20
2023-11-09T16:30:39.144Z,17.50
2023-11-09T16:33:09.655Z,13.30
2023-11-09T16:35:38.185Z,22.70
2023-11-09T16:38:06.438Z,20.40
2023-11-09T16:40:35.749Z,16.20
2023-11-09T16:43:04.528Z,16.20
2023-11-09T16:45:32.503Z,26.70
2023-11-09T16:48:00.418Z,33.40
2023-11-09T16:50:28.314Z,125.50
2023-11-09T16:52:56.031Z,53.40
2023-11-09T16:55:24.164Z,22.90
2023-11-09T16:57:52.429Z,41.40
2023-11-09T17:00:20.192Z,38.70
2023-11-09T17:02:49.031Z,41.60
2023-11-09T17:05:18.101Z,51.70
2023-11-09T17:07:47.047Z,59.80
2023-11-09T17:10:18.221Z,77.90
2023-11-09T17:12:45.986Z,41.80
2023-11-09T17:15:14.833Z,117.10
2023-11-09T17:17:43.511Z,50.40
2023-11-09T17:20:12.044Z,73.00
2023-11-09T17:22:40.664Z,15.60
2023-11-09T17:25:09.636Z,20.30
2023-11-09T17:27:37.623Z,31.50
2023-11-09T17:30:13.128Z,29.80
2023-11-09T17:32:41.690Z,38.90
2023-11-09T17:35:10.495Z,23.10
2023-11-09T17:37:39.021Z,43.50
2023-11-09T17:40:12.781Z,95.90
2023-11-09T17:42:40.975Z,107.20
2023-11-09T17:45:08.718Z,68.60
2023-11-09T17:47:39.653Z,86.90
2023-11-09T17:50:09.784Z,44.50
2023-11-09T17:52:38.481Z,15.40
2023-11-09T17:55:06.538Z,16.30
2023-11-09T17:57:34.860Z,29.70
2023-11-09T18:00:02.846Z,79.30
2023-11-09T18:02:30.826Z,48.40
2023-11-09T18:04:58.661Z,46.90
2023-11-09T18:07:26.506Z,17.90
2023-11-09T18:09:54.559Z,78.80
2023-11-09T18:12:22.455Z,30.90
2023-11-09T18:14:50.815Z,67.40
2023-11-09T18:17:18.633Z,39.20
2023-11-09T18:19:46.635Z,88.60
2023-11-09T18:22:14.716Z,26.30
2023-11-09T18:24:42.474Z,25.60
2023-11-09T18:27:10.248Z,32.90
2023-11-09T18:29:38.105Z,20.90
2023-11-09T18:32:05.965Z,94.10
2023-11-09T18:34:34.062Z,111.60
2023-11-09T18:37:01.807Z,97.60
2023-11-09T18:39:31.313Z,24.00
2023-11-09T18:41:59.486Z,28.30
2023-11-09T18:44:27.256Z,23.40
2023-11-09T18:46:55.202Z,14.50
2023-11-09T18:51:54.539Z,54.10
2023-11-09T18:54:22.302Z,37.70
2023-11-09T18:56:50.165Z,31.00
2023-11-09T18:59:17.932Z,16.70
2023-11-09T19:01:45.845Z,40.40
2023-11-09T19:06:44.428Z,22.80
2023-11-09T19:09:13.287Z,23.10
2023-11-09T19:11:43.604Z,61.10
2023-11-09T19:14:11.685Z,79.80
2023-11-09T19:16:39.429Z,38.20
2023-11-09T19:19:07.257Z,35.40
2023-11-09T19:24:06.020Z,15.10
2023-11-09T19:26:33.783Z,19.00
2023-11-09T19:29:01.558Z,15.90
2023-11-09T19:31:29.241Z,15.80
2023-11-09T19:33:57.690Z,17.60
2023-11-09T19:36:26.887Z,24.10
2023-11-09T19:38:55.607Z,26.10
2023-11-09T19:41:23.338Z,12.50
2023-11-09T19:43:51.511Z,22.60
2023-11-09T19:46:21.257Z,17.70
2023-11-09T19:48:49.117Z,22.20
2023-11-09T19:51:16.994Z,17.20
2023-11-09T19:53:45.498Z,11.10
2023-11-09T19:56:13.336Z,14.10
2023-11-09T19:58:41.372Z,10.70
2023-11-09T20:01:09.184Z,9.20
2023-11-09T20:03:37.105Z,9.60
2023-11-09T20:06:05.108Z,9.40
2023-11-09T20:08:32.947Z,9.10
2023-11-09T20:11:01.738Z,8.60
2023-11-09T20:13:29.627Z,9.50
2023-11-09T20:15:57.859Z,6.60
2023-11-09T20:18:25.751Z,6.90
2023-11-09T20:20:53.605Z,8.10
2023-11-09T20:23:21.371Z,6.80
2023-11-09T20:25:49.566Z,5.80
2023-11-09T20:28:18.437Z,6.40
2023-11-09T20:30:46.210Z,6.30
2023-11-09T20:33:14.041Z,7.10
2023-11-09T20:35:41.951Z,6.60
2023-11-09T20:38:13.086Z,6.70
2023-11-09T20:40:40.945Z,6.40
2023-11-09T20:43:10.241Z,5.90
2023-11-09T20:45:39.897Z,7.30
2023-11-09T20:48:10.883Z,6.60
2023-11-09T20:50:38.964Z,6.20
2023-11-09T20:53:07.552Z,5.60
2023-11-09T20:55:36.131Z,6.80
2023-11-09T20:58:06.062Z,9.00
2023-11-09T21:00:35.837Z,8.00
2023-11-09T21:03:05.809Z,8.10
2023-11-09T21:05:36.116Z,8.70
2023-11-09T21:08:03.981Z,7.40
2023-11-09T21:10:33.566Z,7.10
2023-11-09T21:13:02.266Z,7.10
2023-11-09T21:15:30.151Z,6.50
2023-11-09T21:17:59.485Z,6.10
2023-11-09T21:20:28.010Z,5.10
2023-11-09T21:22:55.771Z,6.10
2023-11-09T21:25:23.536Z,5.60
2023-11-09T21:27:51.812Z,5.20
2023-11-09T21:30:19.651Z,7.30
2023-11-09T21:32:47.589Z,6.90
2023-11-09T21:35:18.462Z,5.30
2023-11-09T21:37:46.620Z,4.90
2023-11-09T21:40:16.244Z,4.70
2023-11-09T21:42:44.383Z,5.30
2023-11-09T21:45:15.469Z,5.70
2023-11-09T21:47:43.747Z,5.30
2023-11-09T21:50:11.664Z,6.10
2023-11-09T21:52:39.382Z,5.50
2023-11-09T21:55:10.423Z,6.10
2023-11-09T21:57:39.579Z,5.90
2023-11-09T22:00:08.537Z,7.50
2023-11-09T22:02:36.403Z,7.50
2023-11-09T22:05:04.673Z,7.30
2023-11-09T22:07:32.523Z,8.50
2023-11-09T22:10:01.880Z,7.80
2023-11-09T22:12:29.989Z,8.10
2023-11-09T22:14:58.087Z,9.10
2023-11-09T22:17:26.159Z,10.30
2023-11-09T22:19:53.909Z,12.40
2023-11-09T22:22:21.669Z,11.90
2023-11-09T22:24:50.294Z,11.00
2023-11-09T22:27:19.356Z,13.60
2023-11-09T22:29:47.224Z,12.90
2023-11-09T22:32:14.978Z,12.90
2023-11-09T22:34:42.769Z,8.90
2023-11-09T22:37:11.755Z,6.40
2023-11-09T22:39:39.891Z,7.30
2023-11-09T22:42:10.725Z,8.00
2023-11-09T22:44:38.612Z,10.40
2023-11-09T22:47:07.103Z,9.40
2023-11-09T22:49:34.758Z,8.20
2023-11-09T22:52:02.643Z,9.70
2023-11-09T22:54:31.984Z,7.20
2023-11-09T22:56:59.892Z,5.70
2023-11-09T22:59:27.656Z,6.00
2023-11-09T23:01:55.446Z,6.10
2023-11-09T23:04:23.354Z,7.00
2023-11-09T23:06:51.157Z,6.70
2023-11-09T23:09:19.514Z,6.80
2023-11-09T23:11:47.533Z,7.00
2023-11-09T23:14:15.367Z,6.30
2023-11-09T23:16:43.161Z,5.90
2023-11-09T23:19:11.000Z,5.30
2023-11-09T23:21:40.636Z,5.40
2023-11-09T23:24:08.491Z,6.60
2023-11-09T23:26:36.346Z,6.10
2023-11-09T23:29:04.219Z,7.00
2023-11-09T23:31:32.000Z,5.70
2023-11-09T23:34:02.000Z,6.20
2023-11-09T23:36:30.352Z,5.50
2023-11-09T23:38:58.241Z,6.00
2023-11-09T23:41:25.999Z,5.20
2023-11-09T23:43:53.762Z,5.00
2023-11-09T23:46:21.564Z,5.80
2023-11-09T23:48:49.423Z,6.40
2023-11-09T23:51:18.432Z,5.20
2023-11-09T23:53:46.463Z,5.90
2023-11-09T23:56:14.226Z,5.30
2023-11-09T23:58:41.993Z,4.30
